createdAt,value
2023-05-14T00:01:43.908Z,1.10
2023-05-14T00:04:13.296Z,1.00
2023-05-14T00:06:41.246Z,1.00
2023-05-14T00:09:09.197Z,1.00
2023-05-14T00:11:37.281Z,0.90
2023-05-14T00:14:05.300Z,0.93
2023-05-14T00:16:33.229Z,1.00
2023-05-14T00:19:01.228Z,0.97
2023-05-14T00:21:31.673Z,0.90
2023-05-14T00:23:59.575Z,1.10
2023-05-14T00:26:27.477Z,1.00
2023-05-14T00:28:55.397Z,1.00
2023-05-14T00:31:23.390Z,1.10
2023-05-14T00:33:51.439Z,1.10
2023-05-14T00:36:19.398Z,0.90
2023-05-14T00:38:48.721Z,1.10
2023-05-14T00:41:16.584Z,0.80
2023-05-14T00:43:44.569Z,1.00
2023-05-14T00:46:12.549Z,0.90
2023-05-14T00:48:40.567Z,1.10
2023-05-14T00:51:08.566Z,1.07
2023-05-14T00:53:36.567Z,0.90
2023-05-14T00:56:07.009Z,1.10
2023-05-14T00:58:34.965Z,0.90
2023-05-14T01:01:03.267Z,0.90
2023-05-14T01:03:31.575Z,0.90
2023-05-14T01:06:02.265Z,1.00
2023-05-14T01:08:34.139Z,1.00
2023-05-14T01:11:08.221Z,1.00
2023-05-14T01:13:41.280Z,0.80
2023-05-14T01:16:09.701Z,1.10
2023-05-14T01:18:37.688Z,1.10
2023-05-14T01:21:06.403Z,1.00
2023-05-14T01:23:35.715Z,1.10
2023-05-14T01:26:03.686Z,1.10
2023-05-14T01:28:33.846Z,0.90
2023-05-14T01:31:03.715Z,1.50
2023-05-14T01:33:31.652Z,1.30
2023-05-14T01:35:59.568Z,1.10
2023-05-14T01:38:27.717Z,0.93
2023-05-14T01:40:56.989Z,1.13
2023-05-14T01:43:25.079Z,0.90
2023-05-14T01:45:55.349Z,1.20
2023-05-14T01:48:23.531Z,1.00
2023-05-14T01:50:51.531Z,1.10
2023-05-14T01:53:19.565Z,0.90
2023-05-14T01:55:47.455Z,1.00
2023-05-14T01:58:16.825Z,0.97
2023-05-14T02:00:44.771Z,1.20
2023-05-14T02:03:12.820Z,1.20
2023-05-14T02:05:40.824Z,1.00
2023-05-14T02:08:08.747Z,1.07
2023-05-14T02:10:36.648Z,1.00
2023-05-14T02:13:04.615Z,1.10
2023-05-14T02:15:33.917Z,1.20
2023-05-14T02:18:01.895Z,1.00
2023-05-14T02:20:29.870Z,1.03
2023-05-14T02:22:57.770Z,0.90
2023-05-14T02:25:25.956Z,1.10
2023-05-14T02:27:53.918Z,1.03
2023-05-14T02:30:22.922Z,1.00
2023-05-14T02:32:52.523Z,1.10
2023-05-14T02:35:20.451Z,1.00
2023-05-14T02:37:48.436Z,1.00
2023-05-14T02:40:16.442Z,1.10
2023-05-14T02:42:44.997Z,1.00
2023-05-14T02:45:13.063Z,1.10
2023-05-14T02:47:41.025Z,1.17
2023-05-14T02:50:11.369Z,1.13
2023-05-14T02:52:39.317Z,1.10
2023-05-14T02:55:08.141Z,1.00
2023-05-14T02:57:36.076Z,1.10
2023-05-14T03:00:04.619Z,0.90
2023-05-14T03:02:33.328Z,1.00
2023-05-14T03:05:01.640Z,1.00
2023-05-14T03:07:31.026Z,0.97
2023-05-14T03:10:00.387Z,0.90
2023-05-14T03:12:28.419Z,1.00
2023-05-14T03:14:56.350Z,1.00
2023-05-14T03:17:24.347Z,1.10
2023-05-14T03:19:52.292Z,1.10
2023-05-14T03:22:20.224Z,1.00
2023-05-14T03:24:50.048Z,1.00
2023-05-14T03:27:18.023Z,1.20
2023-05-14T03:29:45.954Z,1.00
2023-05-14T03:32:13.900Z,0.90
2023-05-14T03:34:41.956Z,1.13
2023-05-14T03:37:09.864Z,1.20
2023-05-14T03:39:37.957Z,1.03
2023-05-14T03:42:07.892Z,0.90
2023-05-14T03:44:35.796Z,1.10
2023-05-14T03:47:03.837Z,1.10
2023-05-14T03:49:31.757Z,1.30
2023-05-14T03:51:59.751Z,1.20
2023-05-14T03:54:27.746Z,1.00
2023-05-14T03:56:55.773Z,1.07
2023-05-14T03:59:25.267Z,1.00
2023-05-14T04:01:53.203Z,1.30
2023-05-14T04:04:21.145Z,1.13
2023-05-14T04:06:49.137Z,1.17
2023-05-14T04:09:17.129Z,1.20
2023-05-14T04:11:45.072Z,1.00
2023-05-14T04:14:12.996Z,1.17
2023-05-14T04:16:42.495Z,1.00
2023-05-14T04:19:10.566Z,1.00
2023-05-14T04:21:38.926Z,0.93
2023-05-14T04:24:07.525Z,1.07
2023-05-14T04:26:35.464Z,1.13
2023-05-14T04:29:03.460Z,1.00
2023-05-14T04:31:31.748Z,1.17
2023-05-14T04:34:01.123Z,1.00
2023-05-14T04:36:29.155Z,0.93
2023-05-14T04:38:57.178Z,1.10
2023-05-14T04:41:25.063Z,0.90
2023-05-14T04:43:52.968Z,1.20
2023-05-14T04:46:20.931Z,1.30
2023-05-14T04:48:48.984Z,0.90
2023-05-14T04:51:18.604Z,1.20
2023-05-14T04:53:46.525Z,1.03
2023-05-14T04:56:14.443Z,1.03
2023-05-14T04:58:42.484Z,1.10
2023-05-14T05:01:10.690Z,1.17
2023-05-14T05:03:38.706Z,1.23
2023-05-14T05:06:07.116Z,1.00
2023-05-14T05:08:37.446Z,1.00
2023-05-14T05:11:05.866Z,1.07
2023-05-14T05:13:33.748Z,1.00
2023-05-14T05:16:01.739Z,1.00
2023-05-14T05:18:29.715Z,1.03
2023-05-14T05:20:57.757Z,1.00
2023-05-14T05:23:25.698Z,1.10
2023-05-14T05:25:55.343Z,1.23
2023-05-14T05:28:23.303Z,1.20
2023-05-14T05:30:51.276Z,1.00
2023-05-14T05:33:19.861Z,1.20
2023-05-14T05:35:48.304Z,1.27
2023-05-14T05:38:18.259Z,1.13
2023-05-14T05:40:46.194Z,1.20
2023-05-14T05:43:16.134Z,1.10
2023-05-14T05:45:44.060Z,1.10
2023-05-14T05:48:12.012Z,1.20
2023-05-14T05:50:39.923Z,1.00
2023-05-14T05:53:07.840Z,1.13
2023-05-14T05:55:35.829Z,1.10
2023-05-14T05:58:03.789Z,0.93
2023-05-14T06:00:33.419Z,1.00
2023-05-14T06:03:01.527Z,1.10
2023-05-14T06:05:29.537Z,1.30
2023-05-14T06:07:57.518Z,1.10
2023-05-14T06:10:25.647Z,1.00
2023-05-14T06:12:53.713Z,1.00
2023-05-14T06:15:22.223Z,1.00
2023-05-14T06:17:51.538Z,0.90
2023-05-14T06:20:19.724Z,1.10
2023-05-14T06:22:47.665Z,1.00
2023-05-14T06:25:15.690Z,1.00
2023-05-14T06:27:43.784Z,0.93
2023-05-14T06:30:13.048Z,1.10
2023-05-14T06:32:40.992Z,1.10
2023-05-14T06:35:11.119Z,1.00
2023-05-14T06:37:39.058Z,1.00
2023-05-14T06:40:08.380Z,1.23
2023-05-14T06:42:36.319Z,1.00
2023-05-14T06:45:04.366Z,1.10
2023-05-14T06:47:32.430Z,1.20
2023-05-14T06:50:01.958Z,1.10
2023-05-14T06:52:31.331Z,1.00
2023-05-14T06:54:59.241Z,1.03
2023-05-14T06:57:27.315Z,1.10
2023-05-14T06:59:55.398Z,1.10
2023-05-14T07:02:23.413Z,0.97
2023-05-14T07:04:51.366Z,1.17
2023-05-14T07:07:21.192Z,1.13
2023-05-14T07:09:51.061Z,1.13
2023-05-14T07:12:19.086Z,1.10
2023-05-14T07:14:47.091Z,1.17
2023-05-14T07:17:15.119Z,1.00
2023-05-14T07:19:43.371Z,1.10
2023-05-14T07:22:11.447Z,1.10
2023-05-14T07:24:39.537Z,1.10
2023-05-14T07:27:09.091Z,1.10
2023-05-14T07:29:37.020Z,1.10
2023-05-14T07:32:05.356Z,0.90
2023-05-14T07:34:33.420Z,0.90
2023-05-14T07:37:01.357Z,1.10
2023-05-14T07:39:29.317Z,1.10
2023-05-14T07:41:57.248Z,1.00
2023-05-14T07:44:26.575Z,1.10
2023-05-14T07:46:54.626Z,1.00
2023-05-14T07:49:22.553Z,1.10
2023-05-14T07:51:50.462Z,1.00
2023-05-14T07:54:18.676Z,1.00
2023-05-14T07:56:46.612Z,1.17
2023-05-14T07:59:14.562Z,1.10
2023-05-14T08:01:44.297Z,1.00
2023-05-14T08:04:12.707Z,1.00
2023-05-14T08:06:40.650Z,1.00
2023-05-14T08:09:08.786Z,1.00
2023-05-14T08:11:36.700Z,1.20
2023-05-14T08:14:04.691Z,1.20
2023-05-14T08:16:32.798Z,1.00
2023-05-14T08:19:02.272Z,1.13
2023-05-14T08:21:30.303Z,0.87
2023-05-14T08:23:58.265Z,1.20
2023-05-14T08:26:26.492Z,1.10
2023-05-14T08:28:54.782Z,1.10
2023-05-14T08:31:22.760Z,1.13
2023-05-14T08:33:50.793Z,0.97
2023-05-14T08:36:20.090Z,1.20
2023-05-14T08:38:48.579Z,1.00
2023-05-14T08:41:16.570Z,1.00
2023-05-14T08:43:46.895Z,1.10
2023-05-14T08:46:15.458Z,0.80
2023-05-14T08:48:43.883Z,1.00
2023-05-14T08:51:11.912Z,1.10
2023-05-14T08:53:41.494Z,1.10
2023-05-14T08:56:09.495Z,1.00
2023-05-14T08:58:37.434Z,1.10
2023-05-14T09:01:05.737Z,1.33
2023-05-14T09:03:33.922Z,1.00
2023-05-14T09:06:01.827Z,0.90
2023-05-14T09:08:29.831Z,1.10
2023-05-14T09:10:59.156Z,1.13
2023-05-14T09:13:28.306Z,1.27
2023-05-14T09:15:56.386Z,1.17
2023-05-14T09:18:24.394Z,1.40
2023-05-14T09:20:53.187Z,0.97
2023-05-14T09:23:21.158Z,1.20
2023-05-14T09:25:49.778Z,1.10
2023-05-14T09:28:21.270Z,1.00
2023-05-14T09:30:51.694Z,1.00
2023-05-14T09:33:27.355Z,0.90
2023-05-14T09:35:59.200Z,1.20
2023-05-14T09:38:30.595Z,1.03
2023-05-14T09:40:58.545Z,0.93
2023-05-14T09:43:27.931Z,1.00
2023-05-14T09:45:56.014Z,1.00
2023-05-14T09:48:24.472Z,1.10
2023-05-14T09:50:52.768Z,1.20
2023-05-14T09:53:20.679Z,1.00
2023-05-14T09:55:49.334Z,1.03
2023-05-14T09:58:17.274Z,0.93
2023-05-14T10:00:47.785Z,1.10
2023-05-14T10:03:19.635Z,0.90
2023-05-14T10:05:47.909Z,1.00
2023-05-14T10:08:17.083Z,1.00
2023-05-14T10:10:45.027Z,1.10
2023-05-14T10:13:14.472Z,1.00
2023-05-14T10:15:45.143Z,0.97
2023-05-14T10:18:19.119Z,1.10
2023-05-14T10:20:48.751Z,1.00
2023-05-14T10:23:16.666Z,1.10
2023-05-14T10:25:44.583Z,1.00
2023-05-14T10:28:12.763Z,1.10
2023-05-14T10:30:45.058Z,1.03
2023-05-14T10:33:15.497Z,1.10
2023-05-14T10:36:02.018Z,1.10
2023-05-14T10:38:30.551Z,1.00
2023-05-14T10:41:02.457Z,1.20
2023-05-14T10:43:31.201Z,1.00
2023-05-14T10:45:59.570Z,0.90
2023-05-14T10:48:28.998Z,0.90
2023-05-14T10:50:57.788Z,1.10
2023-05-14T10:53:33.389Z,1.20
2023-05-14T10:56:04.592Z,1.00
2023-05-14T10:58:33.857Z,1.00
2023-05-14T11:01:01.957Z,1.00
2023-05-14T11:03:32.747Z,1.00
2023-05-14T11:06:01.531Z,1.03
2023-05-14T11:08:29.544Z,0.80
2023-05-14T11:10:57.533Z,1.00
2023-05-14T11:13:25.656Z,0.90
2023-05-14T11:15:53.571Z,1.00
2023-05-14T11:18:28.756Z,1.00
2023-05-14T11:21:00.932Z,0.90
2023-05-14T11:23:28.944Z,1.00
2023-05-14T11:25:58.094Z,0.90
2023-05-14T11:28:26.831Z,1.07
2023-05-14T11:30:55.159Z,1.07
2023-05-14T11:33:23.136Z,1.10
2023-05-14T11:35:52.029Z,1.00
2023-05-14T11:38:21.706Z,1.10
2023-05-14T11:40:54.041Z,1.00
2023-05-14T11:43:23.749Z,0.90
2023-05-14T11:45:52.557Z,1.07
2023-05-14T11:48:20.651Z,0.97
2023-05-14T11:50:48.936Z,0.90
2023-05-14T11:53:21.351Z,1.10
2023-05-14T11:55:49.410Z,1.00
2023-05-14T11:58:18.893Z,1.17
2023-05-14T12:00:47.414Z,0.90
2023-05-14T12:03:15.797Z,1.20
2023-05-14T12:05:56.551Z,1.10
2023-05-14T12:08:27.694Z,1.17
2023-05-14T12:10:55.892Z,1.00
2023-05-14T12:13:23.855Z,1.10
2023-05-14T12:15:56.115Z,1.00
2023-05-14T12:18:25.570Z,1.10
2023-05-14T12:20:53.518Z,1.00
2023-05-14T12:23:27.810Z,1.03
2023-05-14T12:25:55.721Z,0.90
2023-05-14T12:28:24.300Z,1.10
2023-05-14T12:30:57.418Z,1.10
2023-05-14T12:33:26.596Z,0.90
2023-05-14T12:35:58.892Z,0.90
2023-05-14T12:38:29.978Z,0.90
2023-05-14T12:40:57.990Z,0.90
2023-05-14T12:43:31.506Z,1.10
2023-05-14T12:45:59.398Z,1.00
2023-05-14T12:48:27.501Z,0.90
2023-05-14T12:50:58.242Z,1.00
2023-05-14T12:53:26.394Z,1.10
2023-05-14T12:55:56.278Z,1.13
2023-05-14T12:58:24.273Z,0.97
2023-05-14T13:00:52.420Z,1.07
2023-05-14T13:03:20.871Z,0.90
2023-05-14T13:05:49.090Z,0.90
2023-05-14T13:08:17.902Z,1.10
2023-05-14T13:10:46.054Z,1.00
2023-05-14T13:13:16.317Z,1.00
2023-05-14T13:15:46.793Z,1.00
2023-05-14T13:18:14.810Z,0.90
2023-05-14T13:20:43.326Z,1.00
2023-05-14T13:23:11.353Z,0.90
2023-05-14T13:25:39.262Z,0.90
2023-05-14T13:28:07.260Z,0.93
2023-05-14T13:30:36.581Z,1.07
2023-05-14T13:33:04.834Z,0.97
2023-05-14T13:35:32.775Z,0.90
2023-05-14T13:38:00.684Z,1.10
2023-05-14T13:40:28.688Z,1.00
2023-05-14T13:42:56.668Z,1.03
2023-05-14T13:45:24.815Z,1.10
2023-05-14T13:47:56.641Z,0.93
2023-05-14T13:50:24.710Z,1.20
2023-05-14T13:52:52.681Z,1.03
2023-05-14T13:55:20.618Z,1.00
2023-05-14T13:57:48.588Z,1.03
2023-05-14T14:00:17.294Z,0.83
2023-05-14T14:02:45.247Z,0.80
2023-05-14T14:05:14.763Z,0.90
2023-05-14T14:07:42.724Z,1.00
2023-05-14T14:10:11.519Z,0.90
2023-05-14T14:12:39.527Z,1.20
2023-05-14T14:15:08.709Z,1.00
2023-05-14T14:17:36.868Z,1.07
2023-05-14T14:20:06.169Z,0.90
2023-05-14T14:22:35.657Z,0.90
2023-05-14T14:25:03.705Z,0.90
2023-05-14T14:27:34.033Z,0.90
2023-05-14T14:30:01.949Z,1.00
2023-05-14T14:32:30.845Z,0.93
2023-05-14T14:34:58.799Z,0.93
2023-05-14T14:37:26.772Z,0.90
2023-05-14T14:39:56.062Z,1.07
2023-05-14T14:42:24.205Z,0.90
2023-05-14T14:44:52.197Z,0.90
2023-05-14T14:47:20.145Z,0.87
2023-05-14T14:49:48.049Z,0.90
2023-05-14T14:52:16.024Z,0.90
2023-05-14T14:54:43.890Z,1.20
2023-05-14T14:57:13.214Z,1.00
2023-05-14T14:59:41.428Z,0.90
2023-05-14T15:02:09.878Z,0.97
2023-05-14T15:04:38.826Z,1.10
2023-05-14T15:07:07.078Z,1.10
2023-05-14T15:09:35.078Z,0.90
2023-05-14T15:12:03.090Z,0.90
2023-05-14T15:14:32.356Z,0.90
2023-05-14T15:17:00.390Z,1.10
2023-05-14T15:19:28.346Z,1.00
2023-05-14T15:21:56.336Z,0.80
2023-05-14T15:24:25.281Z,1.00
2023-05-14T15:26:53.726Z,1.00
2023-05-14T15:29:22.417Z,1.00
2023-05-14T15:31:51.798Z,1.00
2023-05-14T15:34:19.753Z,0.90
2023-05-14T15:36:48.220Z,1.00
2023-05-14T15:39:16.136Z,1.00
2023-05-14T15:41:44.079Z,0.90
2023-05-14T15:44:12.037Z,1.00
2023-05-14T15:46:39.975Z,1.20
2023-05-14T15:49:09.329Z,0.90
2023-05-14T15:51:37.234Z,1.00
2023-05-14T15:54:05.152Z,0.90
2023-05-14T15:56:33.110Z,1.00
2023-05-14T15:59:01.014Z,1.20
2023-05-14T16:01:28.932Z,1.20
2023-05-14T16:03:56.989Z,1.10
2023-05-14T16:06:26.650Z,1.10
2023-05-14T16:08:54.687Z,1.10
2023-05-14T16:11:22.654Z,1.00
2023-05-14T16:13:50.576Z,1.20
2023-05-14T16:16:19.634Z,1.00
2023-05-14T16:18:47.724Z,0.90
2023-05-14T16:21:15.790Z,1.00
2023-05-14T16:23:45.073Z,1.00
2023-05-14T16:26:13.067Z,0.97
2023-05-14T16:28:42.745Z,1.00
2023-05-14T16:31:10.811Z,0.80
2023-05-14T16:33:38.743Z,1.10
2023-05-14T16:36:07.173Z,1.00
2023-05-14T16:38:38.533Z,1.00
2023-05-14T16:41:10.743Z,1.00
2023-05-14T16:43:38.653Z,1.00
2023-05-14T16:46:06.921Z,1.00
2023-05-14T16:48:34.925Z,1.00
2023-05-14T16:51:02.856Z,0.90
2023-05-14T16:53:30.954Z,0.83
2023-05-14T16:55:59.012Z,0.90
2023-05-14T16:58:28.470Z,0.90
2023-05-14T17:00:56.551Z,1.00
2023-05-14T17:03:24.501Z,0.83
2023-05-14T17:05:52.714Z,0.90
2023-05-14T17:08:21.073Z,1.00
2023-05-14T17:10:49.023Z,0.90
2023-05-14T17:13:17.143Z,1.10
2023-05-14T17:15:46.544Z,1.00
2023-05-14T17:18:14.539Z,1.20
2023-05-14T17:20:42.506Z,1.10
2023-05-14T17:23:10.639Z,0.80
2023-05-14T17:25:38.603Z,1.00
2023-05-14T17:28:06.680Z,0.90
2023-05-14T17:30:34.775Z,0.93
2023-05-14T17:33:04.308Z,0.97
2023-05-14T17:35:35.789Z,0.90
2023-05-14T17:38:03.771Z,1.10
2023-05-14T17:40:31.733Z,0.90
2023-05-14T17:42:59.586Z,1.00
2023-05-14T17:45:28.605Z,0.90
2023-05-14T17:47:58.658Z,1.10
2023-05-14T17:50:28.066Z,0.90
2023-05-14T17:52:56.810Z,1.00
2023-05-14T17:55:25.080Z,1.10
2023-05-14T17:57:53.244Z,1.00
2023-05-14T18:00:21.394Z,0.90
2023-05-14T18:02:49.442Z,1.00
2023-05-14T18:05:19.936Z,0.93
2023-05-14T18:07:49.977Z,0.93
2023-05-14T18:10:18.042Z,1.00
2023-05-14T18:12:45.982Z,1.10
2023-05-14T18:15:13.937Z,1.00
2023-05-14T18:17:42.149Z,1.00
2023-05-14T18:20:11.023Z,1.00
2023-05-14T18:22:39.082Z,1.00
2023-05-14T18:25:09.612Z,1.03
2023-05-14T18:27:44.076Z,1.00
2023-05-14T18:30:14.668Z,1.10
2023-05-14T18:32:43.595Z,0.97
2023-05-14T18:35:11.735Z,1.00
2023-05-14T18:37:39.731Z,0.90
2023-05-14T18:40:15.622Z,0.80
2023-05-14T18:42:44.920Z,1.10
2023-05-14T18:45:13.055Z,1.03
2023-05-14T18:47:41.427Z,0.93
2023-05-14T18:50:10.089Z,1.00
2023-05-14T18:52:38.205Z,0.90
2023-05-14T18:55:07.013Z,0.90
2023-05-14T18:57:36.842Z,1.00
2023-05-14T19:00:05.244Z,0.90
2023-05-14T19:02:33.354Z,0.90
2023-05-14T19:05:01.328Z,0.90
2023-05-14T19:07:30.429Z,0.90
2023-05-14T19:09:58.396Z,1.00
2023-05-14T19:12:26.754Z,0.80
2023-05-14T19:14:56.078Z,0.90
2023-05-14T19:17:24.044Z,1.00
2023-05-14T19:19:52.236Z,1.00
2023-05-14T19:22:20.184Z,0.90
2023-05-14T19:27:17.425Z,1.00
2023-05-14T19:29:45.358Z,0.90
2023-05-14T19:32:14.712Z,1.10
2023-05-14T19:34:42.640Z,1.00
2023-05-14T19:37:10.684Z,1.10
2023-05-14T19:39:38.689Z,1.07
2023-05-14T19:42:07.265Z,1.03
2023-05-14T19:44:44.520Z,1.00
2023-05-14T19:47:12.475Z,1.60
2023-05-14T19:49:42.174Z,1.60
2023-05-14T19:52:11.921Z,1.57
2023-05-14T19:54:39.864Z,1.50
2023-05-14T19:57:08.097Z,1.60
2023-05-14T19:59:36.093Z,1.43
2023-05-14T20:02:04.755Z,1.83
2023-05-14T20:04:33.187Z,1.80
2023-05-14T20:07:02.462Z,1.90
2023-05-14T20:09:30.311Z,2.10
2023-05-14T20:11:58.346Z,2.00
2023-05-14T20:14:29.260Z,1.90
2023-05-14T20:16:58.136Z,2.30
2023-05-14T20:19:26.688Z,1.90
2023-05-14T20:21:56.241Z,2.20
2023-05-14T20:24:25.595Z,2.00
2023-05-14T20:26:53.513Z,3.03
2023-05-14T20:29:21.434Z,2.30
2023-05-14T20:31:49.350Z,2.73
2023-05-14T20:34:17.273Z,3.10
2023-05-14T20:36:45.183Z,3.00
2023-05-14T20:39:13.163Z,3.80
2023-05-14T20:41:42.496Z,3.27
2023-05-14T20:44:10.636Z,3.83
2023-05-14T20:46:41.397Z,2.90
2023-05-14T20:49:09.345Z,2.93
2023-05-14T20:51:37.307Z,3.00
2023-05-14T20:54:05.532Z,3.13
2023-05-14T20:56:33.478Z,3.40
2023-05-14T20:59:02.849Z,3.13
2023-05-14T21:01:30.669Z,3.07
2023-05-14T21:03:58.943Z,3.03
2023-05-14T21:06:27.007Z,2.90
2023-05-14T21:08:55.095Z,2.83
2023-05-14T21:11:23.097Z,2.90
2023-05-14T21:13:51.067Z,3.80
2023-05-14T21:16:20.656Z,3.60
2023-05-14T21:18:48.782Z,3.33
2023-05-14T21:21:16.787Z,3.90
2023-05-14T21:23:47.869Z,3.30
2023-05-14T21:26:15.915Z,3.40
2023-05-14T21:28:44.454Z,3.53
2023-05-14T21:31:12.354Z,3.53
2023-05-14T21:33:41.876Z,3.80
2023-05-14T21:36:09.858Z,3.43
2023-05-14T21:38:37.788Z,3.87
2023-05-14T21:41:05.737Z,3.43
2023-05-14T21:43:33.714Z,3.67
2023-05-14T21:46:05.241Z,3.80
2023-05-14T21:48:33.343Z,3.40
2023-05-14T21:51:02.894Z,4.07
2023-05-14T21:53:34.731Z,4.10
2023-05-14T21:56:02.718Z,3.97
2023-05-14T21:58:30.732Z,4.30
2023-05-14T22:00:58.691Z,4.20
2023-05-14T22:03:26.753Z,4.40
2023-05-14T22:05:57.470Z,3.50
2023-05-14T22:08:27.235Z,4.70
2023-05-14T22:10:56.104Z,4.70
2023-05-14T22:13:24.083Z,3.90
2023-05-14T22:16:01.425Z,4.17
2023-05-14T22:18:37.211Z,3.83
2023-05-14T22:21:05.252Z,3.30
2023-05-14T22:23:34.641Z,3.87
2023-05-14T22:26:02.660Z,4.50
2023-05-14T22:28:30.616Z,3.77
2023-05-14T22:30:59.723Z,3.77
2023-05-14T22:33:27.721Z,3.93
2023-05-14T22:35:55.718Z,3.50
2023-05-14T22:38:23.629Z,4.67
2023-05-14T22:40:52.942Z,4.27
2023-05-14T22:43:20.821Z,3.90
2023-05-14T22:45:48.745Z,3.90
2023-05-14T22:48:16.704Z,3.40
2023-05-14T22:50:44.615Z,3.70
2023-05-14T22:53:12.555Z,4.03
2023-05-14T22:55:40.431Z,4.00
2023-05-14T22:58:10.314Z,4.53
2023-05-14T23:00:38.236Z,3.93
2023-05-14T23:03:06.190Z,4.23
2023-05-14T23:05:34.175Z,3.80
2023-05-14T23:08:02.066Z,4.10
2023-05-14T23:10:29.894Z,4.10
2023-05-14T23:12:57.841Z,4.03
2023-05-14T23:15:27.459Z,3.77
2023-05-14T23:17:55.554Z,4.10
2023-05-14T23:20:23.571Z,3.70
2023-05-14T23:22:51.477Z,4.43
2023-05-14T23:25:19.350Z,4.03
2023-05-14T23:27:48.000Z,4.07
2023-05-14T23:30:16.203Z,4.10
2023-05-14T23:32:45.513Z,4.27
2023-05-14T23:35:13.524Z,4.60
2023-05-14T23:37:46.986Z,4.33
2023-05-14T23:40:15.641Z,4.20
2023-05-14T23:42:44.411Z,4.10
2023-05-14T23:45:13.032Z,3.87
2023-05-14T23:47:41.208Z,3.63
2023-05-14T23:50:11.020Z,4.07
2023-05-14T23:52:39.035Z,4.17
2023-05-14T23:55:07.763Z,4.60
2023-05-14T23:57:35.690Z,4.20
